Bellingham International Airport
KBLI : now visible

Airfield :











YOU CAN JOIN US ON...

 
LOGIN :

Register | Disclaimer

   EN    FR    IT 

 









Legend :    VFR   Marginal VFR   IFR   Intensive IFR   Very Intensive IFR
Visi :
Ceiling :
>= 8 km
>= 3000ft
5 to 8 km
1000 to 3000 ft
1500m to 5 km
500 to 1000 ft
800 to 1500m
200 to 500 ft
< 800m
< 200 ft
Symbols :   Thunderstorms  Fog  Heavy snow  Heavy precipitations  Wind > 20 kt






- Airport Elevation : 170 ft
- IATA code : BLI


KBLI - Bellingham International

CURRENT METAR :
  • 250953Z AUTO 21003KT 5SM -RA BR FEW014 BKN024 OVC035 06/04 A2991 RMK AO2 RAB01 SLP137 P0005 T00610044

EXPIRED METARs :
  • 250926Z AUTO 19007KT 6SM -RA BR SCT013 SCT023 OVC031 06/04 A2991 RMK AO2 RAB01 P0002 T00610044
  • 250901Z AUTO 19007KT 10SM -RA BKN012 BKN019 OVC028 07/04 A2991 RMK AO2 RAB01 P0000 T00670039
  • 250853Z AUTO 19006KT 10SM BKN016 BKN028 OVC036 07/04 A2991 RMK AO2 SLP135 T00670039 51003
  • 250753Z AUTO 20004KT 10SM FEW046 BKN110 07/03 A2990 RMK AO2 SLP132 T00720028 401060050

TAF KBLI
Valid from the 25 at 06:00 until the 26 at 06:00 UTC


250520Z 2506/2606 19006KT P6SM VCSH SCT045
FM251200 18008KT P6SM OVC020
FM252000 16006KT P6SM BKN030
KZSE FIR / North America



MET'MAP, your aeronautical weather chart ! - Copyright ORBIFLY December 2007 - Disclaimer

ORBIFLY MET'MAP TEAM :

Programming & Development : Alexandra Zaïnal
Concept & original design : Baudouin d'Aumeries
Assistance for programming : Marc-Olivier Méhu
Technical & hardware support : Manuel Goepfert

Contact : metmap@orbifly.com




SOURCES & CREDITS :

   NOAA       Earth
Advisory